Time;durP1;ratioP1;P1;durP2;ratioP2;P2;SDS_P1;SDS_P2;PMS_P1;PMS_P2;Temp;Humidity;BMP_temperature;BMP_pressure;BME280_temperature;BME280_humidity;BME280_pressure;Samples;Min_cycle;Max_cycle;Signal;HPM_P1;HPM_P2
2022/05/18 00:00:35;;;;;;;4.43;4.03;;;;;;;18.70;58.52;97526.75;10306957;28;20058;-53
2022/05/18 00:05:54;;;;;;;4.15;3.75;;;;;;;18.70;58.63;97521.38;10306549;28;20054;-53
2022/05/18 00:11:16;;;;;;;4.60;4.20;;;;;;;18.69;58.49;97517.06;10291174;28;20749;-51
2022/05/18 00:16:36;;;;;;;4.38;4.00;;;;;;;18.70;58.48;97526.75;10291779;28;20058;-53
2022/05/18 00:21:55;;;;;;;4.35;3.88;;;;;;;18.70;58.63;97529.47;10293468;28;20409;-50
2022/05/18 00:27:14;;;;;;;4.38;4.00;;;;;;;18.70;58.46;97525.94;10292650;28;20094;-50
2022/05/18 00:32:34;;;;;;;4.15;3.85;;;;;;;18.70;58.38;97534.03;10289756;28;20399;-53
2022/05/18 00:37:53;;;;;;;4.18;3.88;;;;;;;18.69;58.45;97527.84;10293244;28;20059;-52
2022/05/18 00:43:33;;;;;;;3.90;3.60;;;;;;;18.70;58.42;97540.25;10306276;28;20066;-52
2022/05/18 00:48:53;;;;;;;4.43;3.90;;;;;;;18.69;58.31;97543.25;10287942;28;20063;-53
2022/05/18 00:54:25;;;;;;;4.43;4.03;;;;;;;18.68;58.38;97539.75;10291187;28;20059;-52
2022/05/18 00:59:53;;;;;;;3.95;3.65;;;;;;;18.69;58.31;97557.53;10276854;28;20058;-52
2022/05/18 01:05:15;;;;;;;4.40;4.00;;;;;;;18.68;58.38;97558.66;10275121;28;20062;-53
2022/05/18 01:10:34;;;;;;;4.05;3.65;;;;;;;18.69;58.40;97562.13;10266365;28;20310;-50
2022/05/18 01:15:53;;;;;;;4.20;3.90;;;;;;;18.68;58.25;97558.66;10303355;28;20050;-53
2022/05/18 01:21:13;;;;;;;4.03;3.72;;;;;;;18.67;58.31;97562.44;10290272;28;20414;-53
2022/05/18 01:26:44;;;;;;;4.47;4.07;;;;;;;18.67;58.33;97557.03;10274521;28;20054;-53
2022/05/18 01:32:05;;;;;;;3.95;3.63;;;;;;;18.67;57.96;97557.03;10275185;28;20055;-51
2022/05/18 01:37:24;;;;;;;4.20;3.85;;;;;;;18.66;58.21;97560.84;10300208;28;20047;-53
2022/05/18 01:42:46;;;;;;;4.00;3.70;;;;;;;18.66;58.22;97560.84;10301515;28;20529;-51
2022/05/18 01:48:12;;;;;;;4.15;3.85;;;;;;;18.67;58.21;97573.22;10294549;28;20062;-53
2022/05/18 01:53:33;;;;;;;3.92;3.63;;;;;;;18.66;58.07;97579.75;10299174;28;20051;-52
2022/05/18 01:58:52;;;;;;;4.47;3.58;;;;;;;18.67;58.18;97577.84;10292832;28;20143;-53
2022/05/18 02:04:13;;;;;;;4.30;3.90;;;;;;;18.66;58.00;97579.75;10309905;28;20109;-53
2022/05/18 02:09:33;;;;;;;4.35;4.03;;;;;;;18.66;58.15;97579.75;10297519;28;20085;-53
2022/05/18 02:14:52;;;;;;;3.83;3.53;;;;;;;18.66;58.06;97593.22;10296992;28;20062;-52
2022/05/18 02:20:12;;;;;;;4.28;3.88;;;;;;;18.66;57.94;97598.63;10298440;28;20066;-51
2022/05/18 02:25:32;;;;;;;4.28;3.88;;;;;;;18.65;57.92;97602.41;10281524;28;20055;-51
2022/05/18 02:30:51;;;;;;;4.10;3.70;;;;;;;18.65;57.92;97605.13;10296786;28;20058;-51
2022/05/18 02:36:12;;;;;;;4.05;3.75;;;;;;;18.67;57.91;97612.91;10296363;28;20055;-54
2022/05/18 02:41:32;;;;;;;3.75;3.45;;;;;;;18.66;57.83;97614.81;10295796;28;20058;-51
2022/05/18 02:46:56;;;;;;;4.15;3.75;;;;;;;18.65;57.82;97610.50;10307730;28;20058;-50
2022/05/18 02:52:15;;;;;;;4.15;3.75;;;;;;;18.64;57.80;97611.63;10295212;28;20070;-53
2022/05/18 02:57:35;;;;;;;4.25;3.95;;;;;;;18.64;57.73;97622.41;10298345;28;20050;-50
2022/05/18 03:02:55;;;;;;;4.20;3.90;;;;;;;18.64;57.82;97625.13;10291225;28;20490;-52
2022/05/18 03:08:14;;;;;;;3.72;3.42;;;;;;;18.64;57.74;97633.22;10307062;28;20058;-51
2022/05/18 03:13:34;;;;;;;4.00;3.70;;;;;;;18.64;57.54;97638.63;10301931;28;20070;-53
2022/05/18 03:18:53;;;;;;;3.90;3.60;;;;;;;18.63;57.68;97642.41;10294966;28;20624;-51
2022/05/18 03:24:13;;;;;;;3.95;3.58;;;;;;;18.63;57.60;97647.78;10291675;28;20070;-53
2022/05/18 03:29:33;;;;;;;3.80;3.50;;;;;;;18.63;57.66;97647.00;10269082;28;20058;-53
2022/05/18 03:34:52;;;;;;;3.95;3.65;;;;;;;18.63;57.64;97661.28;10267288;28;20862;-53
2022/05/18 03:40:12;;;;;;;3.80;3.50;;;;;;;18.63;57.68;97660.50;10294558;28;20059;-53
2022/05/18 03:45:33;;;;;;;3.88;3.47;;;;;;;18.63;57.65;97669.38;10315073;28;20485;-52
2022/05/18 03:50:55;;;;;;;3.88;3.58;;;;;;;18.63;57.49;97668.59;10290427;28;20059;-53
2022/05/18 03:56:15;;;;;;;3.95;3.65;;;;;;;18.62;57.58;97667.81;10295038;28;20066;-52
2022/05/18 04:01:34;;;;;;;4.10;3.80;;;;;;;18.61;57.48;97671.59;10291945;28;20050;-53
2022/05/18 04:06:54;;;;;;;3.88;3.58;;;;;;;18.62;57.54;97672.38;10306595;28;20561;-52
2022/05/18 04:12:13;;;;;;;3.88;3.58;;;;;;;18.63;57.35;97680.19;10302784;28;20062;-52
2022/05/18 04:17:33;;;;;;;4.05;3.75;;;;;;;18.62;57.54;97694.78;10289493;28;20065;-53
2022/05/18 04:22:53;;;;;;;4.20;3.90;;;;;;;18.62;57.68;97696.66;10289905;28;20642;-53
2022/05/18 04:28:15;;;;;;;4.32;3.92;;;;;;;18.62;57.90;97705.59;10293452;28;20402;-52
2022/05/18 04:33:34;;;;;;;4.20;3.85;;;;;;;18.65;57.96;97704.97;10293810;28;20596;-53
2022/05/18 04:38:54;;;;;;;4.28;3.88;;;;;;;18.66;57.84;97711.16;10303979;28;20047;-53
2022/05/18 04:44:14;;;;;;;4.68;4.28;;;;;;;18.67;57.74;97718.19;10302402;28;20066;-53
2022/05/18 04:49:34;;;;;;;7.75;5.57;;;;;;;18.67;57.45;97727.06;10295371;28;20053;-52
2022/05/18 04:54:53;;;;;;;6.20;5.20;;;;;;;18.69;57.43;97729.47;10297056;28;20051;-52
2022/05/18 05:00:13;;;;;;;6.38;5.45;;;;;;;18.68;57.34;97728.69;10291198;28;20395;-53
2022/05/18 05:05:33;;;;;;;14.45;9.02;;;;;;;18.64;56.52;97735.78;10291432;28;20051;-52
2022/05/18 05:10:52;;;;;;;14.13;9.38;;;;;;;18.62;56.52;97742.53;10291167;28;20059;-51
2022/05/18 05:16:12;;;;;;;10.68;7.78;;;;;;;18.61;56.42;97747.16;10291685;28;20390;-50
2022/05/18 05:21:31;;;;;;;9.57;6.90;;;;;;;18.62;56.55;97748.75;10281755;28;20391;-53
2022/05/18 05:26:50;;;;;;;9.15;5.80;;;;;;;18.63;56.65;97755.75;10284704;28;20058;-54
2022/05/18 05:32:11;;;;;;;8.57;5.68;;;;;;;18.65;56.64;97758.16;10287050;28;20055;-50
2022/05/18 05:37:30;;;;;;;7.43;5.53;;;;;;;18.65;56.82;97758.16;10285690;28;20054;-53
2022/05/18 05:42:50;;;;;;;8.80;5.88;;;;;;;18.64;56.85;97762.75;10303773;28;20058;-51
2022/05/18 05:48:10;;;;;;;8.65;5.63;;;;;;;18.65;56.91;97758.94;10307677;28;20046;-53
2022/05/18 05:53:32;;;;;;;7.80;5.55;;;;;;;18.66;56.85;97765.97;10301253;28;20058;-54
2022/05/18 05:58:51;;;;;;;9.65;5.85;;;;;;;18.65;56.76;97769.75;10288792;28;20094;-52
2022/05/18 06:04:10;;;;;;;10.85;5.63;;;;;;;18.66;56.75;97770.53;10289112;28;20047;-52
2022/05/18 06:09:30;;;;;;;8.07;5.50;;;;;;;18.66;56.81;97775.94;10301059;28;20054;-52
2022/05/18 06:14:49;;;;;;;10.27;5.68;;;;;;;18.67;56.92;97782.97;10292185;28;20047;-51
2022/05/18 06:20:09;;;;;;;9.48;5.60;;;;;;;18.66;56.83;97776.75;10289653;28;20654;-53
2022/05/18 06:25:29;;;;;;;8.10;5.60;;;;;;;18.66;56.69;97784.03;10288175;28;20055;-51
2022/05/18 06:30:48;;;;;;;9.25;5.88;;;;;;;18.67;56.63;97788.34;10301770;28;20047;-51
2022/05/18 06:36:08;;;;;;;9.13;5.53;;;;;;;18.67;56.62;97788.34;10302532;28;20051;-53
2022/05/18 06:41:27;;;;;;;7.85;5.25;;;;;;;18.68;56.62;97790.75;10300885;28;20055;-50
2022/05/18 06:46:47;;;;;;;9.10;5.25;;;;;;;18.67;56.62;97789.16;10305902;28;20394;-53
2022/05/18 06:52:09;;;;;;;9.80;5.20;;;;;;;18.67;56.69;97797.25;10302831;28;20054;-53
2022/05/18 06:57:29;;;;;;;10.88;5.68;;;;;;;18.68;56.74;97815.06;10289624;28;20055;-54
2022/05/18 07:02:50;;;;;;;6.82;5.53;;;;;;;18.68;56.89;97823.16;10291256;28;20050;-53
2022/05/18 07:08:09;;;;;;;10.10;5.15;;;;;;;18.69;56.99;97822.03;10295246;28;20414;-53
2022/05/18 07:13:28;;;;;;;7.20;5.20;;;;;;;18.69;57.07;97824.75;10292471;28;20070;-53
2022/05/18 07:18:48;;;;;;;6.72;4.88;;;;;;;18.68;56.77;97825.84;10293007;28;20638;-53
2022/05/18 07:24:07;;;;;;;6.55;4.75;;;;;;;18.70;57.04;97831.75;10306613;28;20047;-52
2022/05/18 07:29:27;;;;;;;7.63;4.82;;;;;;;18.68;57.05;97828.56;10306245;28;20055;-53
2022/05/18 07:34:47;;;;;;;6.55;4.45;;;;;;;18.69;56.98;97835.53;10306158;28;20058;-52
2022/05/18 07:40:08;;;;;;;6.68;4.88;;;;;;;18.71;57.00;97835.25;10315051;28;20055;-53
2022/05/18 07:45:28;;;;;;;6.45;4.43;;;;;;;18.70;56.99;97829.06;10304498;28;20054;-53
2022/05/18 07:50:48;;;;;;;7.85;4.47;;;;;;;18.71;57.08;97838.75;10284052;28;20066;-53
2022/05/18 07:56:08;;;;;;;5.47;4.30;;;;;;;18.70;57.13;97831.75;10305942;28;20738;-50
2022/05/18 08:01:28;;;;;;;7.28;4.80;;;;;;;18.71;56.94;97832.56;10305022;28;20054;-51
2022/05/18 08:06:47;;;;;;;6.57;4.47;;;;;;;18.70;56.98;97837.16;10302277;28;20501;-53
2022/05/18 08:17:45;;;;;;;6.72;4.13;;;;;;;18.72;56.96;97839.56;10305688;28;20402;-52
2022/05/18 08:23:05;;;;;;;5.38;3.67;;;;;;;18.71;57.04;97835.25;10300948;28;20417;-53
2022/05/18 08:28:26;;;;;;;5.97;4.00;;;;;;;18.71;57.03;97849.53;10297098;28;20054;-53
2022/05/18 08:33:45;;;;;;;4.60;3.95;;;;;;;18.73;56.95;97862.75;10321795;28;20478;-53
2022/05/18 08:39:05;;;;;;;4.85;3.80;;;;;;;18.71;57.12;97860.34;10292252;28;20065;-51
2022/05/18 08:44:28;;;;;;;5.13;3.97;;;;;;;18.71;57.06;97865.75;10291433;28;20054;-52
2022/05/18 08:49:58;;;;;;;5.00;4.22;;;;;;;18.72;57.10;97861.97;10287271;28;20065;-53
2022/05/18 08:55:42;;;;;;;5.03;3.92;;;;;;;18.72;56.83;97861.16;10303122;28;20508;-50
2022/05/18 09:01:06;;;;;;;4.32;3.92;;;;;;;18.73;57.11;97865.44;10294405;28;20054;-52
2022/05/18 09:06:31;;;;;;;4.95;3.50;;;;;;;18.73;56.90;97858.16;10290040;28;20150;-53
2022/05/18 09:11:50;;;;;;;4.15;3.40;;;;;;;18.74;57.02;97858.97;10283995;28;20050;-50
2022/05/18 09:17:35;;;;;;;4.88;3.88;;;;;;;18.73;57.01;97858.16;10290618;28;20602;-53
2022/05/18 09:23:09;;;;;;;5.22;3.75;;;;;;;18.74;57.00;97865.16;10281159;28;20129;-51
2022/05/18 09:28:52;;;;;;;6.32;3.55;;;;;;;18.74;57.00;97859.75;10288445;28;20154;-52
2022/05/18 09:34:21;;;;;;;3.83;3.30;;;;;;;18.75;57.06;97860.56;10270786;28;20379;-53
2022/05/18 09:39:45;;;;;;;4.57;3.33;;;;;;;18.75;57.21;97861.34;10283876;28;20062;-53
2022/05/18 09:45:12;;;;;;;4.03;3.47;;;;;;;18.75;57.10;97871.34;10308384;28;20050;-52
2022/05/18 09:50:32;;;;;;;4.57;3.50;;;;;;;18.76;57.22;97859.47;10302968;28;20043;-53
2022/05/18 09:55:54;;;;;;;4.57;3.67;;;;;;;18.77;57.04;97864.56;10284397;28;20043;-54
2022/05/18 10:12:51;;;;;;;;;;;;;;;18.76;57.18;97852.19;10287327;28;20055;-51
2022/05/18 10:18:25;;;;;;;4.00;3.13;;;;;;;18.78;56.94;97846.50;10288430;28;20385;-52
2022/05/18 10:23:51;;;;;;;3.97;3.08;;;;;;;18.77;57.05;97844.88;10296198;28;20051;-50
2022/05/18 10:29:13;;;;;;;3.33;3.03;;;;;;;18.78;57.12;97843.78;10298626;28;20065;-52
2022/05/18 10:34:44;;;;;;;4.40;3.17;;;;;;;18.77;57.25;97845.66;10297946;28;20514;-51
2022/05/18 10:40:11;;;;;;;5.15;3.20;;;;;;;18.79;57.12;97839.97;10298273;28;20063;-51
2022/05/18 10:45:34;;;;;;;4.05;3.30;;;;;;;18.78;57.26;97838.38;10317068;28;20058;-50
2022/05/18 10:51:06;;;;;;;4.18;3.15;;;;;;;18.79;57.08;97842.69;10297141;28;20051;-54
2022/05/18 10:56:28;;;;;;;4.05;2.97;;;;;;;18.79;57.14;97839.97;10282948;28;20434;-51
2022/05/18 11:01:56;;;;;;;3.97;3.47;;;;;;;18.78;57.02;97836.50;10310324;28;20110;-53
2022/05/18 11:07:25;;;;;;;5.13;3.00;;;;;;;18.80;57.16;97840.81;10282564;28;20466;-52
2022/05/18 11:12:49;;;;;;;4.07;3.22;;;;;;;18.79;57.20;97829.19;10296531;28;20413;-52
2022/05/18 11:18:29;;;;;;;3.58;3.10;;;;;;;18.79;57.23;97818.38;10281426;28;20062;-53
2022/05/18 11:23:48;;;;;;;3.58;3.28;;;;;;;18.79;57.22;97810.28;10294721;28;20062;-52
2022/05/18 11:29:23;;;;;;;3.50;2.85;;;;;;;18.81;57.08;97813.53;10295601;28;20422;-53
2022/05/18 11:34:52;;;;;;;4.13;2.90;;;;;;;18.82;57.09;97800.81;10295752;28;20065;-51
2022/05/18 11:40:25;;;;;;;2.88;2.67;;;;;;;18.80;57.16;97798.44;10294209;28;20105;-52
2022/05/18 11:46:12;;;;;;;3.35;3.00;;;;;;;18.81;57.10;97805.44;10313651;28;20106;-51
2022/05/18 11:51:55;;;;;;;3.08;2.75;;;;;;;18.83;57.16;97797.03;10294338;28;20054;-53
2022/05/18 11:57:15;;;;;;;3.65;2.80;;;;;;;18.82;57.10;97784.63;10294969;28;20066;-51
2022/05/18 12:03:00;;;;;;;3.47;2.90;;;;;;;18.81;57.22;97783.81;10307917;28;20078;-52
2022/05/18 12:08:27;;;;;;;3.38;3.08;;;;;;;18.83;57.21;97781.63;10294906;28;20085;-51
2022/05/18 12:14:28;;;;;;;3.38;2.90;;;;;;;18.82;57.25;97790.03;10294122;28;20065;-52
2022/05/18 12:20:06;;;;;;;3.80;3.10;;;;;;;18.84;57.14;97782.47;10254275;28;20078;-51
2022/05/18 12:25:27;;;;;;;2.78;2.55;;;;;;;18.84;57.16;97785.16;10294183;28;20676;-53
2022/05/18 12:30:48;;;;;;;3.38;2.78;;;;;;;18.83;57.07;97784.34;10293797;28;20086;-53
2022/05/18 12:36:19;;;;;;;2.83;2.53;;;;;;;18.83;57.17;97776.22;10292035;28;20092;-53
2022/05/18 12:41:43;;;;;;;3.22;2.92;;;;;;;18.84;57.04;97779.75;10291316;28;20079;-51
2022/05/18 12:47:10;;;;;;;3.00;2.70;;;;;;;18.86;57.30;97788.34;10306771;28;20062;-53
2022/05/18 12:52:29;;;;;;;3.80;2.83;;;;;;;18.85;57.27;97784.03;10316880;28;20122;-54
2022/05/18 12:57:53;;;;;;;3.60;2.53;;;;;;;18.85;57.12;97782.13;10293112;28;20509;-53
2022/05/18 13:03:12;;;;;;;3.92;2.80;;;;;;;18.86;57.25;97780.25;10305748;28;20421;-52
2022/05/18 13:08:35;;;;;;;3.00;2.53;;;;;;;18.87;57.18;97776.44;10292660;28;20059;-53
2022/05/18 13:13:58;;;;;;;3.30;2.90;;;;;;;18.88;57.24;97780.75;10292272;28;20536;-53
2022/05/18 13:19:19;;;;;;;3.13;2.30;;;;;;;18.88;57.32;97778.84;10305460;28;20046;-54
2022/05/18 13:24:46;;;;;;;3.17;2.63;;;;;;;18.89;57.30;97769.66;10292141;28;20382;-51
2022/05/18 13:30:15;;;;;;;3.10;2.55;;;;;;;18.89;57.20;97768.84;10304132;28;20069;-50
2022/05/18 13:35:36;;;;;;;2.75;2.45;;;;;;;18.90;57.33;97763.16;10290886;28;20495;-53
2022/05/18 13:41:11;;;;;;;3.15;2.75;;;;;;;18.90;57.47;97756.97;10300032;28;20069;-52
2022/05/18 13:46:32;;;;;;;3.60;2.45;;;;;;;18.91;57.39;97747.75;10310541;28;20058;-51
2022/05/18 13:51:55;;;;;;;2.60;2.30;;;;;;;18.93;57.35;97743.69;10287541;28;20058;-53
2022/05/18 13:57:22;;;;;;;4.25;2.40;;;;;;;18.93;57.26;97737.47;10296402;28;20525;-53
2022/05/18 14:02:41;;;;;;;4.00;2.15;;;;;;;19.00;57.00;97739.78;10286009;28;20082;-51
2022/05/18 14:08:33;;;;;;;2.97;2.20;;;;;;;19.07;56.82;97737.47;10302186;28;20121;-53
2022/05/18 14:13:54;;;;;;;2.80;2.55;;;;;;;19.09;56.90;97738.81;10285329;28;20525;-51
2022/05/18 14:19:19;;;;;;;5.25;2.35;;;;;;;19.14;57.12;97733.28;10318234;28;20054;-50
2022/05/18 14:24:45;;;;;;;5.80;2.40;;;;;;;19.17;57.03;97727.31;10291189;28;20117;-53
2022/05/18 14:30:20;;;;;;;5.75;2.28;;;;;;;19.20;56.83;97731.31;10322390;28;20055;-51
2022/05/18 14:35:43;;;;;;;5.40;2.95;;;;;;;19.20;57.13;97725.91;10327478;28;20101;-52
2022/05/18 14:41:07;;;;;;;4.53;2.58;;;;;;;19.25;56.94;97733.09;10303555;28;20058;-50
2022/05/18 14:46:32;;;;;;;3.60;2.75;;;;;;;19.27;57.08;97718.22;10298534;28;20062;-52
2022/05/18 14:51:58;;;;;;;3.22;2.33;;;;;;;19.27;57.08;97720.91;10325634;28;20049;-52
2022/05/18 14:57:28;;;;;;;4.38;2.70;;;;;;;19.29;57.30;97712.50;10319297;28;20067;-52
2022/05/18 15:02:50;;;;;;;4.78;2.42;;;;;;;19.31;57.07;97721.13;10319777;28;20058;-53
2022/05/18 15:08:13;;;;;;;7.05;2.78;;;;;;;19.37;57.04;97714.50;10292489;28;20467;-53
2022/05/18 15:13:48;;;;;;;3.42;2.78;;;;;;;19.41;56.74;97709.31;10278846;28;20058;-53
2022/05/18 15:19:18;;;;;;;2.63;2.20;;;;;;;19.29;55.53;97712.50;10281140;28;20063;-52
2022/05/18 15:24:39;;;;;;;4.25;2.28;;;;;;;19.20;54.59;97708.91;10330885;28;20066;-53
2022/05/18 15:30:06;;;;;;;3.85;2.10;;;;;;;19.16;53.08;97709.47;10292720;28;20086;-53
2022/05/18 15:35:29;;;;;;;6.00;1.92;;;;;;;19.15;51.73;97699.78;10304203;28;20055;-53
2022/05/18 15:40:49;;;;;;;1.80;1.65;;;;;;;19.14;50.68;97700.88;10289428;28;20059;-53
2022/05/18 15:46:14;;;;;;;3.13;1.48;;;;;;;19.12;49.22;97708.47;10276524;28;20059;-53
2022/05/18 15:51:34;;;;;;;2.90;2.00;;;;;;;19.12;48.26;97707.69;10306502;28;20042;-53
2022/05/18 15:56:54;;;;;;;20.35;9.63;;;;;;;19.10;47.20;97716.09;10270821;28;20510;-51
2022/05/18 16:02:13;;;;;;;31.15;11.15;;;;;;;19.10;47.77;97705.28;10281536;28;20055;-52
2022/05/18 16:07:34;;;;;;;19.40;5.80;;;;;;;19.07;48.22;97700.50;10288608;28;20114;-52
2022/05/18 16:12:56;;;;;;;4.78;2.90;;;;;;;19.05;47.27;97701.88;10280133;28;20050;-53
2022/05/18 16:18:17;;;;;;;5.47;2.28;;;;;;;19.03;47.39;97704.88;10274824;28;20055;-51
2022/05/18 16:23:37;;;;;;;3.25;1.77;;;;;;;19.04;47.72;97705.69;10279950;28;20063;-52
2022/05/18 16:28:58;;;;;;;2.90;1.77;;;;;;;19.04;47.79;97701.06;10293696;28;20050;-52
2022/05/18 16:34:17;;;;;;;3.10;1.50;;;;;;;19.02;47.64;97707.88;10274931;28;20050;-54
2022/05/18 16:39:37;;;;;;;1.88;1.33;;;;;;;19.01;47.27;97695.47;10303988;28;20055;-52
2022/05/18 16:44:57;;;;;;;4.47;1.98;;;;;;;19.03;47.78;97704.06;10283543;28;20409;-61
2022/05/18 16:50:17;;;;;;;3.22;2.30;;;;;;;19.03;48.40;97702.16;10293816;28;20059;-52
2022/05/18 16:55:36;;;;;;;2.85;2.10;;;;;;;19.02;48.75;97703.28;10284544;28;20054;-50
2022/05/18 17:00:56;;;;;;;4.45;1.90;;;;;;;19.02;49.15;97703.28;10285541;28;20055;-50
2022/05/18 17:06:17;;;;;;;4.30;1.90;;;;;;;19.03;49.40;97704.06;10290952;28;20084;-54
2022/05/18 17:11:41;;;;;;;3.53;1.90;;;;;;;19.06;49.71;97706.97;10273718;28;20051;-53
2022/05/18 17:17:05;;;;;;;3.78;1.88;;;;;;;19.08;49.98;97701.28;10271742;28;20065;-51
2022/05/18 17:22:25;;;;;;;5.93;1.80;;;;;;;19.06;49.80;97708.88;10297150;28;20058;-50
2022/05/18 17:27:45;;;;;;;1.77;1.65;;;;;;;19.04;48.55;97711.88;10288496;28;20077;-52
2022/05/18 17:33:05;;;;;;;2.65;1.58;;;;;;;19.02;46.63;97708.69;10287793;28;20062;-59
2022/05/18 17:38:25;;;;;;;2.83;1.70;;;;;;;19.01;45.90;97709.75;10265508;28;20070;-51
2022/05/18 17:43:44;;;;;;;2.20;1.55;;;;;;;19.00;43.56;97710.88;10289974;28;20061;-51
2022/05/18 17:49:04;;;;;;;1.88;1.48;;;;;;;18.97;45.59;97714.16;10287803;28;20074;-51
2022/05/18 17:54:23;;;;;;;4.35;1.67;;;;;;;18.95;45.58;97710.97;10272842;28;20117;-51
2022/05/18 17:59:42;;;;;;;2.92;1.60;;;;;;;18.94;46.20;97718.28;10296335;28;20074;-53
2022/05/18 18:05:03;;;;;;;2.58;1.70;;;;;;;18.91;46.42;97709.97;10287467;28;20055;-51
2022/05/18 18:10:23;;;;;;;5.47;1.85;;;;;;;18.87;45.90;97714.34;10303428;28;20062;-53
2022/05/18 18:15:43;;;;;;;4.53;1.98;;;;;;;18.83;45.97;97705.25;10285263;28;20051;-51
2022/05/18 18:21:03;;;;;;;4.63;2.75;;;;;;;18.75;45.56;97712.88;10288815;28;20118;-52
2022/05/18 18:26:31;;;;;;;3.28;2.55;;;;;;;18.69;45.74;97705.97;10272353;28;20058;-53
2022/05/18 18:31:52;;;;;;;8.50;3.90;;;;;;;18.64;46.01;97710.66;10299689;28;20062;-54
2022/05/18 18:37:12;;;;;;;5.78;3.97;;;;;;;18.67;46.78;97707.38;10302642;28;20047;-48
2022/05/18 18:42:32;;;;;;;5.57;3.40;;;;;;;18.72;47.28;97712.72;10271560;28;20059;-50
2022/05/18 18:47:51;;;;;;;9.40;4.57;;;;;;;18.75;47.49;97715.59;10289541;28;20106;-54
2022/05/18 18:58:49;;;;;;;9.87;4.23;;;;;;;18.79;48.23;97718.50;10295268;28;20066;-51
2022/05/18 19:04:12;;;;;;;4.95;3.75;;;;;;;18.81;48.25;97718.25;10309945;28;20065;-49
2022/05/18 19:09:34;;;;;;;5.40;3.03;;;;;;;18.80;47.92;97727.44;10290129;28;20425;-51
2022/05/18 19:14:55;;;;;;;6.88;2.22;;;;;;;18.81;47.70;97734.44;10294962;28;20059;-50
2022/05/18 19:20:22;;;;;;;5.20;2.50;;;;;;;18.80;47.59;97738.22;10292654;28;20502;-52
2022/05/18 19:25:43;;;;;;;3.22;2.58;;;;;;;18.80;47.53;97749.03;10301660;28;20066;-53
2022/05/18 19:31:03;;;;;;;5.63;2.50;;;;;;;18.80;47.61;97744.44;10291769;28;20046;-50
2022/05/18 19:36:23;;;;;;;5.43;2.90;;;;;;;18.80;48.15;97735.53;10304971;28;20053;-50
2022/05/18 19:41:42;;;;;;;3.25;2.40;;;;;;;18.81;48.13;97737.94;10293430;28;20055;-51
2022/05/18 19:47:03;;;;;;;4.50;2.67;;;;;;;18.82;48.34;97736.03;10276902;28;20118;-53
2022/05/18 19:52:22;;;;;;;5.88;2.90;;;;;;;18.82;48.93;97733.31;10292263;28;20398;-50
2022/05/18 19:57:48;;;;;;;4.25;2.78;;;;;;;18.82;48.83;97736.03;10291744;28;20122;-53
2022/05/18 20:03:08;;;;;;;5.00;2.70;;;;;;;18.82;49.06;97733.31;10293407;28;20062;-50
2022/05/18 20:08:28;;;;;;;4.00;2.85;;;;;;;18.83;49.14;97732.25;10292147;28;20063;-50
2022/05/18 20:13:47;;;;;;;3.40;2.50;;;;;;;18.83;49.49;97732.25;10290925;28;20057;-51
2022/05/18 20:19:06;;;;;;;3.90;2.95;;;;;;;18.83;49.72;97732.25;10290995;28;20121;-53
2022/05/18 20:24:25;;;;;;;3.70;2.97;;;;;;;18.83;49.84;97738.44;10289332;28;20115;-53
2022/05/18 20:29:47;;;;;;;4.28;2.40;;;;;;;18.83;49.85;97732.25;10272278;28;20054;-52
2022/05/18 20:35:07;;;;;;;6.15;2.75;;;;;;;18.83;49.99;97738.44;10276802;28;20505;-52
2022/05/18 20:40:28;;;;;;;4.63;2.60;;;;;;;18.84;50.43;97737.34;10294327;28;20051;-52
2022/05/18 20:45:48;;;;;;;4.93;2.70;;;;;;;18.87;50.57;97734.03;10301873;28;20082;-53
2022/05/18 20:51:10;;;;;;;4.07;2.80;;;;;;;18.88;50.68;97732.16;10290469;28;20161;-50
2022/05/18 20:56:31;;;;;;;4.45;2.50;;;;;;;18.89;50.63;97729.16;10287966;28;20047;-50
2022/05/18 21:01:50;;;;;;;3.38;2.65;;;;;;;18.90;50.59;97727.28;10285599;28;20058;-50
2022/05/18 21:07:10;;;;;;;3.53;2.35;;;;;;;18.90;50.56;97736.16;10283771;28;20462;-50
2022/05/18 21:12:30;;;;;;;3.83;2.70;;;;;;;18.90;50.82;97730.75;10288370;28;20046;-50
2022/05/18 21:17:50;;;;;;;3.60;2.63;;;;;;;18.92;50.76;97733.97;10285727;28;20102;-51
2022/05/18 21:23:10;;;;;;;3.25;2.40;;;;;;;18.91;50.80;97732.34;10289964;28;20058;-52
2022/05/18 21:28:31;;;;;;;2.83;2.10;;;;;;;18.92;50.76;97733.97;10300470;28;20055;-51
2022/05/18 21:33:52;;;;;;;3.15;2.30;;;;;;;18.92;50.98;97731.25;10274508;28;20054;-52
2022/05/18 21:39:11;;;;;;;4.47;2.47;;;;;;;18.92;50.87;97731.25;10289056;28;20054;-52
2022/05/18 21:44:31;;;;;;;2.60;2.28;;;;;;;18.91;50.89;97737.75;10288142;28;20086;-52
2022/05/18 21:49:51;;;;;;;3.15;2.50;;;;;;;18.92;50.93;97739.38;10287103;28;20114;-50
2022/05/18 21:55:10;;;;;;;4.18;2.50;;;;;;;18.92;51.05;97747.47;10287944;28;20062;-53
2022/05/18 22:00:30;;;;;;;3.83;2.63;;;;;;;18.93;50.95;97743.69;10289971;28;20053;-51
2022/05/18 22:05:50;;;;;;;3.40;2.25;;;;;;;18.93;51.08;97750.97;10287081;28;20464;-53
2022/05/18 22:11:13;;;;;;;3.17;2.70;;;;;;;18.93;50.93;97742.84;10297405;28;20057;-50
2022/05/18 22:16:32;;;;;;;3.50;2.22;;;;;;;18.94;51.06;97752.56;10279028;28;20055;-50
2022/05/18 22:21:51;;;;;;;3.40;2.10;;;;;;;18.92;51.00;97747.47;10295641;28;20054;-53
2022/05/18 22:27:14;;;;;;;3.35;2.33;;;;;;;18.93;50.88;97748.25;10285853;28;20497;-53
2022/05/18 22:32:33;;;;;;;2.58;2.38;;;;;;;18.92;51.09;97752.88;10295331;28;20055;-52
2022/05/18 22:37:54;;;;;;;3.53;2.25;;;;;;;18.92;51.07;97752.88;10281161;28;20473;-50
2022/05/18 22:43:21;;;;;;;3.28;2.40;;;;;;;18.91;50.99;97745.84;10293179;28;20055;-51
2022/05/18 22:48:41;;;;;;;2.58;2.28;;;;;;;18.91;51.00;97743.16;10294634;28;20059;-52
2022/05/18 22:54:01;;;;;;;2.40;2.15;;;;;;;18.93;51.00;97748.25;10293875;28;20110;-52
2022/05/18 22:59:20;;;;;;;2.83;2.03;;;;;;;18.92;50.97;97738.56;10306779;28;20402;-50
2022/05/18 23:04:40;;;;;;;2.83;2.10;;;;;;;18.91;50.97;97732.34;10293819;28;20109;-50
2022/05/18 23:10:01;;;;;;;3.60;2.25;;;;;;;18.92;50.92;97733.19;10293828;28;20485;-50
2022/05/18 23:15:20;;;;;;;4.18;2.10;;;;;;;18.91;50.94;97739.66;10291018;28;20055;-51
2022/05/18 23:20:41;;;;;;;2.78;2.00;;;;;;;18.91;50.98;97734.25;10291082;28;20054;-52
2022/05/18 23:26:06;;;;;;;2.85;2.35;;;;;;;18.91;51.06;97734.25;10291814;28;20533;-52
2022/05/18 23:31:28;;;;;;;2.15;1.95;;;;;;;18.91;51.00;97734.25;10305884;28;20047;-52
2022/05/18 23:36:47;;;;;;;2.97;2.13;;;;;;;18.89;51.09;97726.44;10286524;28;20051;-52
2022/05/18 23:42:07;;;;;;;2.75;2.20;;;;;;;18.90;51.11;97735.38;10290932;28;20051;-51
2022/05/18 23:47:27;;;;;;;2.40;2.00;;;;;;;18.90;50.95;97722.66;10302234;28;20058;-53
2022/05/18 23:52:46;;;;;;;3.15;2.13;;;;;;;18.89;51.03;97726.44;10291163;28;20062;-50
2022/05/18 23:58:06;;;;;;;2.22;1.98;;;;;;;18.90;51.00;97725.38;10288127;28;20082;-50
